Main page
Satellite images 10-day forecastsClimateMarine weather Cyclones Lightning AirportsFAQ Newsletter About
Weather : Europe Africa North America South America Asia Australia-Oceania Others
Languages Contact

Baia Mare, Romania

latitude: 47-40N, longitude: 023-35E, elevation: 218 m


METAR: LRBM 311230Z 25013KT 9999 BKN036 04/M03 Q0988
TAF: LRBM 311100Z 3112/3121 24015KT 9999 BKN030 TEMPO 3112/3115 5000 -RASN BR BKN010 OVC030

Time: 15:03 (13:03 UTC)

Current weather observation

The report was made 33 minutes ago, at 12:30 UTC
Wind 13 kt from the West/Southwest
Temperature 4°C
Humidity 60%
Pressure 988 hPa
Visibility 10 km or more
Broken clouds at a height of 3600 ft

Change units

Forecast

The report was made 2 hours and 3 minutes ago, at 11:00 UTC
Forecast valid from 31 at 12 UTC to 31 at 21 UTC
Wind 15 kt from the West/Southwest
Visibility 10 km or more
Broken clouds at a height of 3000 ft
Temporary
from 31 at 12 UTC to 31 at 15 UTC
Visibility: 5000 m
Broken clouds at a height of 1000 ft
Overcast at a height of 3000 ft
light rain snow and mist
The information on this site is subject to a disclaimer
Weather : Europe Africa North America South America Asia Australia-Oceania Others
Satellite images 10-day forecastsClimateMarine weather Cyclones Lightning AirportsFAQ Languages Contact Newsletter About